createdAt,value
2023-05-01T00:00:09.268Z,46.90
2023-05-01T00:02:38.898Z,46.90
2023-05-01T00:05:11.729Z,46.90
2023-05-01T00:07:40.153Z,46.90
2023-05-01T00:10:09.618Z,46.90
2023-05-01T00:12:37.909Z,47.00
2023-05-01T00:15:07.932Z,47.00
2023-05-01T00:17:36.698Z,47.30
2023-05-01T00:20:06.131Z,47.00
2023-05-01T00:22:35.768Z,47.00
2023-05-01T00:25:04.151Z,46.90
2023-05-01T00:27:33.052Z,46.90
2023-05-01T00:30:01.805Z,46.90
2023-05-01T00:32:30.579Z,47.00
2023-05-01T00:34:58.859Z,47.10
2023-05-01T00:37:27.291Z,47.20
2023-05-01T00:39:57.267Z,47.10
2023-05-01T00:42:25.911Z,47.30
2023-05-01T00:44:54.198Z,47.00
2023-05-01T00:47:22.574Z,47.00
2023-05-01T00:49:51.869Z,47.00
2023-05-01T00:52:20.196Z,47.10
2023-05-01T00:54:52.030Z,47.20
2023-05-01T00:57:23.090Z,47.10
2023-05-01T00:59:51.474Z,47.20
2023-05-01T01:02:19.796Z,47.20
2023-05-01T01:04:49.347Z,47.30
2023-05-01T01:07:25.165Z,47.40
2023-05-01T01:10:05.356Z,47.40
2023-05-01T01:12:45.353Z,47.50
2023-05-01T01:15:21.550Z,47.60
2023-05-01T01:18:07.344Z,47.60
2023-05-01T01:20:44.305Z,47.70
2023-05-01T01:23:43.317Z,47.70
2023-05-01T01:26:35.393Z,47.80
2023-05-01T01:29:32.783Z,47.80
2023-05-01T01:32:12.379Z,47.80
2023-05-01T01:34:49.280Z,47.70
2023-05-01T01:37:23.630Z,47.80
2023-05-01T01:39:58.990Z,47.80
2023-05-01T01:42:32.211Z,47.80
2023-05-01T01:45:05.844Z,47.80
2023-05-01T01:47:35.790Z,47.80
2023-05-01T01:50:09.504Z,47.80
2023-05-01T01:52:39.999Z,47.80
2023-05-01T01:55:13.671Z,47.70
2023-05-01T01:57:44.178Z,47.70
2023-05-01T02:00:16.525Z,47.80
2023-05-01T02:02:50.019Z,47.90
2023-05-01T02:05:22.577Z,47.80
2023-05-01T02:07:52.570Z,48.00
2023-05-01T02:10:22.786Z,48.00
2023-05-01T02:12:53.654Z,48.00
2023-05-01T02:15:23.353Z,48.10
2023-05-01T02:17:53.690Z,48.10
2023-05-01T02:20:25.032Z,48.10
2023-05-01T02:22:54.611Z,48.20
2023-05-01T02:25:23.258Z,48.20
2023-05-01T02:27:57.838Z,48.20
2023-05-01T02:30:26.207Z,48.30
2023-05-01T02:32:54.683Z,48.20
2023-05-01T02:35:24.580Z,48.30
2023-05-01T02:37:53.024Z,48.30
2023-05-01T02:40:22.009Z,48.30
2023-05-01T02:42:53.147Z,48.40
2023-05-01T02:45:26.067Z,49.10
2023-05-01T02:47:57.780Z,48.50
2023-05-01T02:50:28.442Z,48.50
2023-05-01T02:52:57.002Z,49.10
2023-05-01T02:55:38.872Z,48.50
2023-05-01T02:58:07.406Z,48.50
2023-05-01T03:00:36.452Z,48.40
2023-05-01T03:03:05.174Z,48.40
2023-05-01T03:05:34.955Z,48.40
2023-05-01T03:08:04.236Z,48.40
2023-05-01T03:10:32.688Z,48.50
2023-05-01T03:13:01.959Z,48.40
2023-05-01T03:15:30.271Z,48.40
2023-05-01T03:17:58.651Z,48.40
2023-05-01T03:20:27.599Z,48.40
2023-05-01T03:22:59.374Z,48.40
2023-05-01T03:25:27.821Z,48.60
2023-05-01T03:27:56.176Z,48.60
2023-05-01T03:30:25.025Z,48.70
2023-05-01T03:32:55.457Z,48.70
2023-05-01T03:35:30.220Z,48.60
2023-05-01T03:38:00.653Z,48.60
2023-05-01T03:41:05.297Z,48.60
2023-05-01T03:43:52.253Z,48.70
2023-05-01T03:46:41.420Z,48.70
2023-05-01T03:49:14.633Z,48.70
2023-05-01T03:51:48.107Z,48.70
2023-05-01T03:54:18.022Z,48.80
2023-05-01T03:57:06.643Z,48.70
2023-05-01T03:59:35.444Z,48.90
2023-05-01T04:02:05.181Z,48.70
2023-05-01T04:04:36.680Z,48.80
2023-05-01T04:07:05.674Z,48.80
2023-05-01T04:09:35.335Z,49.50
2023-05-01T04:12:03.719Z,48.90
2023-05-01T04:14:32.105Z,48.70
2023-05-01T04:17:00.764Z,48.80
2023-05-01T04:19:30.385Z,48.80
2023-05-01T04:22:00.427Z,48.80
2023-05-01T04:24:29.879Z,48.90
2023-05-01T04:26:59.647Z,48.90
2023-05-01T04:29:27.908Z,49.00
2023-05-01T04:31:57.142Z,49.00
2023-05-01T04:34:29.284Z,49.00
2023-05-01T04:36:58.242Z,49.20
2023-05-01T04:39:26.755Z,49.10
2023-05-01T04:41:55.786Z,49.50
2023-05-01T04:44:26.265Z,49.20
2023-05-01T04:46:54.780Z,49.20
2023-05-01T04:49:23.382Z,49.40
2023-05-01T04:51:51.957Z,49.30
2023-05-01T04:54:20.773Z,49.30
2023-05-01T04:56:49.097Z,49.40
2023-05-01T04:59:17.535Z,49.40
2023-05-01T05:01:47.293Z,49.50
2023-05-01T05:04:16.078Z,49.50
2023-05-01T05:06:44.650Z,49.40
2023-05-01T05:09:21.122Z,49.40
2023-05-01T05:11:49.445Z,49.40
2023-05-01T05:14:23.884Z,49.50
2023-05-01T05:16:54.016Z,49.60
2023-05-01T05:19:22.404Z,49.50
2023-05-01T05:21:50.813Z,49.50
2023-05-01T05:24:19.133Z,49.50
2023-05-01T05:26:49.171Z,49.60
2023-05-01T05:29:17.724Z,49.60
2023-05-01T05:31:46.125Z,49.70
2023-05-01T05:34:15.931Z,49.70
2023-05-01T05:36:44.326Z,49.70
2023-05-01T05:39:13.897Z,49.80
2023-05-01T05:41:42.592Z,49.80
2023-05-01T05:44:11.370Z,49.90
2023-05-01T05:46:39.998Z,49.90
2023-05-01T05:49:09.628Z,49.90
2023-05-01T05:51:39.411Z,49.90
2023-05-01T05:54:08.868Z,50.00
2023-05-01T05:56:38.096Z,50.00
2023-05-01T05:59:07.038Z,50.00
2023-05-01T06:01:37.283Z,50.10
2023-05-01T06:04:06.331Z,50.10
2023-05-01T06:06:39.065Z,50.10
2023-05-01T06:09:08.796Z,50.20
2023-05-01T06:11:37.256Z,50.20
2023-05-01T06:14:05.950Z,50.30
2023-05-01T06:16:34.616Z,50.30
2023-05-01T06:19:03.488Z,50.40
2023-05-01T06:21:32.903Z,50.60
2023-05-01T06:24:03.003Z,50.50
2023-05-01T06:26:40.445Z,50.60
2023-05-01T06:29:08.804Z,50.60
2023-05-01T06:31:37.190Z,50.70
2023-05-01T06:34:05.794Z,50.80
2023-05-01T06:36:45.346Z,50.80
2023-05-01T06:39:15.073Z,50.90
2023-05-01T06:41:43.443Z,51.00
2023-05-01T06:44:12.042Z,51.00
2023-05-01T06:46:40.603Z,51.10
2023-05-01T06:49:09.207Z,51.20
2023-05-01T06:51:38.035Z,51.30
2023-05-01T06:54:06.370Z,51.30
2023-05-01T06:56:36.036Z,51.30
2023-05-01T06:59:04.443Z,51.30
2023-05-01T07:01:35.318Z,51.30
2023-05-01T07:04:04.137Z,51.30
2023-05-01T07:06:33.472Z,51.20
2023-05-01T07:09:02.114Z,51.10
2023-05-01T07:11:30.709Z,51.30
2023-05-01T07:14:02.078Z,51.10
2023-05-01T07:16:30.599Z,51.00
2023-05-01T07:18:58.959Z,50.90
2023-05-01T07:21:27.273Z,50.90
2023-05-01T07:23:55.550Z,50.80
2023-05-01T07:26:25.945Z,50.70
2023-05-01T07:28:54.275Z,50.60
2023-05-01T07:31:23.954Z,50.90
2023-05-01T07:33:54.176Z,50.50
2023-05-01T07:36:22.694Z,50.30
2023-05-01T07:38:51.054Z,50.20
2023-05-01T07:41:19.395Z,50.10
2023-05-01T07:43:47.690Z,50.00
2023-05-01T07:46:16.060Z,49.80
2023-05-01T07:48:45.913Z,49.70
2023-05-01T07:51:14.652Z,49.60
2023-05-01T07:53:42.969Z,49.60
2023-05-01T07:56:11.887Z,49.50
2023-05-01T07:58:41.561Z,49.40
2023-05-01T08:01:10.281Z,49.40
2023-05-01T08:03:38.941Z,49.10
2023-05-01T08:06:08.837Z,49.10
2023-05-01T08:08:37.197Z,49.00
2023-05-01T08:11:05.660Z,49.40
2023-05-01T08:13:34.124Z,48.60
2023-05-01T08:16:03.655Z,48.50
2023-05-01T08:18:32.260Z,48.30
2023-05-01T08:21:00.595Z,48.20
2023-05-01T08:23:30.375Z,48.00
2023-05-01T08:25:58.872Z,47.80
2023-05-01T08:28:27.226Z,47.40
2023-05-01T08:30:55.627Z,47.40
2023-05-01T08:33:24.390Z,47.10
2023-05-01T08:35:53.770Z,47.10
2023-05-01T08:38:22.094Z,47.00
2023-05-01T08:40:56.910Z,46.80
2023-05-01T08:43:27.171Z,46.50
2023-05-01T08:45:57.419Z,46.30
2023-05-01T08:48:27.431Z,46.10
2023-05-01T08:50:58.524Z,46.00
2023-05-01T08:53:27.603Z,45.90
2023-05-01T08:55:57.724Z,45.90
2023-05-01T08:58:26.863Z,45.90
2023-05-01T09:00:56.753Z,46.00
2023-05-01T09:03:26.144Z,46.10
2023-05-01T09:05:55.128Z,46.10
2023-05-01T09:08:23.423Z,45.90
2023-05-01T09:10:56.746Z,45.90
2023-05-01T09:13:26.762Z,45.30
2023-05-01T09:15:55.179Z,45.60
2023-05-01T09:18:23.772Z,45.40
2023-05-01T09:20:52.245Z,45.20
2023-05-01T09:23:20.621Z,45.20
2023-05-01T09:25:51.414Z,44.70
2023-05-01T09:28:41.631Z,44.80
2023-05-01T09:31:23.692Z,44.70
2023-05-01T09:33:55.114Z,44.30
2023-05-01T09:36:25.457Z,44.70
2023-05-01T09:38:54.170Z,44.60
2023-05-01T09:41:22.791Z,44.30
2023-05-01T09:43:55.090Z,44.30
2023-05-01T09:46:24.842Z,43.80
2023-05-01T09:48:58.871Z,43.90
2023-05-01T09:51:29.413Z,43.60
2023-05-01T09:53:59.320Z,43.70
2023-05-01T09:56:28.617Z,43.80
2023-05-01T09:59:01.633Z,44.00
2023-05-01T10:01:40.947Z,43.70
2023-05-01T10:04:10.563Z,43.30
2023-05-01T10:06:40.281Z,43.70
2023-05-01T10:09:16.802Z,43.30
2023-05-01T10:11:53.798Z,43.40
2023-05-01T10:14:24.389Z,42.90
2023-05-01T10:16:53.760Z,42.80
2023-05-01T10:19:22.386Z,42.60
2023-05-01T10:21:51.113Z,42.40
2023-05-01T10:24:19.587Z,42.50
2023-05-01T10:26:50.551Z,42.40
2023-05-01T10:29:23.449Z,42.10
2023-05-01T10:31:51.973Z,42.20
2023-05-01T10:34:22.848Z,42.00
2023-05-01T10:36:57.921Z,41.80
2023-05-01T10:39:33.344Z,41.60
2023-05-01T10:42:06.353Z,41.30
2023-05-01T10:44:36.245Z,41.50
2023-05-01T10:47:48.828Z,41.80
2023-05-01T10:50:17.800Z,40.50
2023-05-01T10:53:18.201Z,41.00
2023-05-01T10:55:49.291Z,39.90
2023-05-01T10:58:58.163Z,40.50
2023-05-01T11:01:35.495Z,39.60
2023-05-01T11:04:07.872Z,40.10
2023-05-01T11:06:37.832Z,39.60
2023-05-01T11:09:41.237Z,40.10
2023-05-01T11:12:11.325Z,38.60
2023-05-01T11:15:06.365Z,40.30
2023-05-01T11:17:50.369Z,38.90
2023-05-01T11:20:50.428Z,38.70
2023-05-01T11:23:20.684Z,38.70
2023-05-01T11:25:52.110Z,39.30
2023-05-01T11:28:25.168Z,39.20
2023-05-01T11:30:54.532Z,39.10
2023-05-01T11:33:28.385Z,39.30
2023-05-01T11:36:01.614Z,38.80
2023-05-01T11:38:30.561Z,38.30
2023-05-01T11:41:04.893Z,38.50
2023-05-01T11:43:33.403Z,38.10
2023-05-01T11:46:04.487Z,38.60
2023-05-01T11:48:34.301Z,38.30
2023-05-01T11:51:02.669Z,38.20
2023-05-01T11:53:31.984Z,38.20
2023-05-01T11:56:00.965Z,38.10
2023-05-01T11:58:37.078Z,37.70
2023-05-01T12:01:07.409Z,37.20
2023-05-01T12:03:46.455Z,37.40
2023-05-01T12:06:16.083Z,36.50
2023-05-01T12:08:51.761Z,37.10
2023-05-01T12:11:21.381Z,36.60
2023-05-01T12:13:50.349Z,36.90
2023-05-01T12:16:19.289Z,36.20
2023-05-01T12:18:49.288Z,36.40
2023-05-01T12:21:18.791Z,36.20
2023-05-01T12:23:47.343Z,36.30
2023-05-01T12:26:19.758Z,36.10
2023-05-01T12:28:58.913Z,35.40
2023-05-01T12:31:28.982Z,34.80
2023-05-01T12:34:00.846Z,35.70
2023-05-01T12:36:31.777Z,35.60
2023-05-01T12:39:02.380Z,35.40
2023-05-01T12:41:39.514Z,35.60
2023-05-01T12:44:25.377Z,35.30
2023-05-01T12:47:00.164Z,34.20
2023-05-01T12:49:31.644Z,35.00
2023-05-01T12:52:03.603Z,35.10
2023-05-01T12:54:34.313Z,35.00
2023-05-01T12:57:10.389Z,35.20
2023-05-01T12:59:44.024Z,34.50
2023-05-01T13:02:15.953Z,35.10
2023-05-01T13:04:49.153Z,35.10
2023-05-01T13:07:19.987Z,34.60
2023-05-01T13:09:55.635Z,35.00
2023-05-01T13:12:24.668Z,34.60
2023-05-01T13:14:53.362Z,34.80
2023-05-01T13:17:26.363Z,34.80
2023-05-01T13:19:57.118Z,34.90
2023-05-01T13:22:35.638Z,34.70
2023-05-01T13:25:06.089Z,34.30
2023-05-01T13:27:34.435Z,34.40
2023-05-01T13:30:02.904Z,34.60
2023-05-01T13:32:31.441Z,34.70
2023-05-01T13:35:03.212Z,34.80
2023-05-01T13:37:32.485Z,34.60
2023-05-01T13:40:00.921Z,34.60
2023-05-01T13:42:29.502Z,34.60
2023-05-01T13:44:59.008Z,34.70
2023-05-01T13:47:28.483Z,34.50
2023-05-01T13:49:57.450Z,34.80
2023-05-01T13:52:27.849Z,35.00
2023-05-01T13:54:58.457Z,34.80
2023-05-01T13:57:27.067Z,34.80
2023-05-01T13:59:55.415Z,35.00
2023-05-01T14:02:29.001Z,34.90
2023-05-01T14:05:00.134Z,34.80
2023-05-01T14:07:30.525Z,35.00
2023-05-01T14:10:00.877Z,34.90
2023-05-01T14:12:31.816Z,35.10
2023-05-01T14:15:01.521Z,35.00
2023-05-01T14:17:33.675Z,35.10
2023-05-01T14:20:02.777Z,34.90
2023-05-01T14:22:44.349Z,35.10
2023-05-01T14:25:27.542Z,34.80
2023-05-01T14:27:57.974Z,34.70
2023-05-01T14:30:30.220Z,35.20
2023-05-01T14:32:59.222Z,35.30
2023-05-01T14:35:28.840Z,35.10
2023-05-01T14:38:15.572Z,35.20
2023-05-01T14:40:46.477Z,35.20
2023-05-01T14:43:18.909Z,35.30
2023-05-01T14:45:49.919Z,35.40
2023-05-01T14:48:26.461Z,35.60
2023-05-01T14:50:55.994Z,35.60
2023-05-01T14:53:25.954Z,35.60
2023-05-01T14:55:55.265Z,35.60
2023-05-01T14:58:24.035Z,35.70
2023-05-01T15:00:53.542Z,35.70
2023-05-01T15:03:22.502Z,35.70
2023-05-01T15:05:51.487Z,35.70
2023-05-01T15:08:20.927Z,35.90
2023-05-01T15:10:52.431Z,35.80
2023-05-01T15:13:21.808Z,35.90
2023-05-01T15:15:51.822Z,36.00
2023-05-01T15:18:21.150Z,35.90
2023-05-01T15:20:50.385Z,35.80
2023-05-01T15:23:19.101Z,35.70
2023-05-01T15:25:50.517Z,36.00
2023-05-01T15:28:20.662Z,35.90
2023-05-01T15:30:49.392Z,36.00
2023-05-01T15:33:19.297Z,35.90
2023-05-01T15:35:49.041Z,36.40
2023-05-01T15:38:17.763Z,35.90
2023-05-01T15:40:46.956Z,35.70
2023-05-01T15:43:15.480Z,35.90
2023-05-01T15:45:45.717Z,35.80
2023-05-01T15:48:14.402Z,35.90
2023-05-01T15:50:43.197Z,36.00
2023-05-01T15:53:11.834Z,35.90
2023-05-01T15:55:40.346Z,36.10
2023-05-01T15:58:09.402Z,36.10
2023-05-01T16:00:39.862Z,36.20
2023-05-01T16:03:10.795Z,36.10
2023-05-01T16:05:40.773Z,36.10
2023-05-01T16:08:09.551Z,36.40
2023-05-01T16:10:38.972Z,36.10
2023-05-01T16:13:07.790Z,36.30
2023-05-01T16:15:37.807Z,36.30
2023-05-01T16:18:06.685Z,36.40
2023-05-01T16:20:43.010Z,36.40
2023-05-01T16:23:11.937Z,36.40
2023-05-01T16:25:43.770Z,36.40
2023-05-01T16:28:13.134Z,36.50
2023-05-01T16:30:45.755Z,36.60
2023-05-01T16:33:19.291Z,36.50
2023-05-01T16:35:50.778Z,36.60
2023-05-01T16:38:19.524Z,36.60
2023-05-01T16:40:49.156Z,36.70
2023-05-01T16:43:17.890Z,36.70
2023-05-01T16:45:47.059Z,36.60
2023-05-01T16:48:20.860Z,36.70
2023-05-01T16:50:50.951Z,36.80
2023-05-01T16:53:19.357Z,36.80
2023-05-01T16:55:47.735Z,36.80
2023-05-01T16:58:16.695Z,37.40
2023-05-01T17:00:45.258Z,36.80
2023-05-01T17:03:15.094Z,36.90
2023-05-01T17:05:43.513Z,36.90
2023-05-01T17:08:13.288Z,36.90
2023-05-01T17:10:41.647Z,36.90
2023-05-01T17:13:09.963Z,36.90
2023-05-01T17:15:38.364Z,37.00
2023-05-01T17:18:06.836Z,37.10
2023-05-01T17:20:35.209Z,37.00
2023-05-01T17:23:03.970Z,37.10
2023-05-01T17:25:33.692Z,37.10
2023-05-01T17:28:02.002Z,37.10
2023-05-01T17:30:30.378Z,37.00
2023-05-01T17:32:58.828Z,37.20
2023-05-01T17:35:27.373Z,37.10
2023-05-01T17:37:56.380Z,37.20
2023-05-01T17:40:24.748Z,37.30
2023-05-01T17:42:54.474Z,37.30
2023-05-01T17:45:22.831Z,37.40
2023-05-01T17:47:52.806Z,37.50
2023-05-01T17:50:21.508Z,37.60
2023-05-01T17:52:49.941Z,37.70
2023-05-01T17:55:18.682Z,37.70
2023-05-01T17:57:48.184Z,37.70
2023-05-01T18:00:18.951Z,37.80
2023-05-01T18:02:48.584Z,37.90
2023-05-01T18:05:17.548Z,37.90
2023-05-01T18:07:46.130Z,38.00
2023-05-01T18:10:14.452Z,38.00
2023-05-01T18:12:43.552Z,38.00
2023-05-01T18:15:13.730Z,38.10
2023-05-01T18:17:44.435Z,38.20
2023-05-01T18:20:13.515Z,38.20
2023-05-01T18:22:42.049Z,38.30
2023-05-01T18:25:10.902Z,38.30
2023-05-01T18:27:41.691Z,38.40
2023-05-01T18:30:11.050Z,38.60
2023-05-01T18:32:46.843Z,38.50
2023-05-01T18:35:18.973Z,38.50
2023-05-01T18:37:47.697Z,38.70
2023-05-01T18:40:16.480Z,38.90
2023-05-01T18:42:44.961Z,38.70
2023-05-01T18:45:14.183Z,38.60
2023-05-01T18:47:42.947Z,38.60
2023-05-01T18:50:13.246Z,39.10
2023-05-01T18:52:42.988Z,39.30
2023-05-01T18:55:12.237Z,39.30
2023-05-01T18:57:41.871Z,39.20
2023-05-01T19:00:11.981Z,39.20
2023-05-01T19:02:40.383Z,39.30
2023-05-01T19:05:10.050Z,39.30
2023-05-01T19:07:38.579Z,39.50
2023-05-01T19:10:10.174Z,39.50
2023-05-01T19:12:39.466Z,39.70
2023-05-01T19:15:09.558Z,39.70
2023-05-01T19:17:38.104Z,39.90
2023-05-01T19:20:08.783Z,40.00
2023-05-01T19:22:37.137Z,40.10
2023-05-01T19:25:08.273Z,40.10
2023-05-01T19:27:36.762Z,40.30
2023-05-01T19:30:06.965Z,40.40
2023-05-01T19:32:36.141Z,40.50
2023-05-01T19:35:04.960Z,40.60
2023-05-01T19:37:33.331Z,40.70
2023-05-01T19:40:01.797Z,40.70
2023-05-01T19:42:32.204Z,40.90
2023-05-01T19:45:00.676Z,41.10
2023-05-01T19:47:29.112Z,41.00
2023-05-01T19:49:57.646Z,41.20
2023-05-01T19:52:26.277Z,41.40
2023-05-01T19:54:54.605Z,41.50
2023-05-01T19:57:23.969Z,41.50
2023-05-01T19:59:55.598Z,41.90
2023-05-01T20:02:24.092Z,42.00
2023-05-01T20:04:52.609Z,42.00
2023-05-01T20:07:21.031Z,42.10
2023-05-01T20:09:50.080Z,42.10
2023-05-01T20:12:18.594Z,42.30
2023-05-01T20:14:47.340Z,42.30
2023-05-01T20:17:17.294Z,42.40
2023-05-01T20:19:45.658Z,42.50
2023-05-01T20:22:13.992Z,42.60
2023-05-01T20:24:42.622Z,42.60
2023-05-01T20:27:11.969Z,42.80
2023-05-01T20:29:41.098Z,43.00
2023-05-01T20:32:09.531Z,43.00
2023-05-01T20:34:39.393Z,43.10
2023-05-01T20:37:07.993Z,43.30
2023-05-01T20:39:36.475Z,43.10
2023-05-01T20:42:05.321Z,43.20
2023-05-01T20:44:33.728Z,43.30
2023-05-01T20:47:02.086Z,43.20
2023-05-01T20:49:30.621Z,43.30
2023-05-01T20:52:00.689Z,43.30
2023-05-01T20:54:32.444Z,43.50
2023-05-01T20:57:02.928Z,43.50
2023-05-01T20:59:32.058Z,43.50
2023-05-01T21:02:04.727Z,43.60
2023-05-01T21:04:33.729Z,43.70
2023-05-01T21:07:03.780Z,43.70
2023-05-01T21:09:32.247Z,43.90
2023-05-01T21:12:01.151Z,43.90
2023-05-01T21:14:29.866Z,44.00
2023-05-01T21:16:59.009Z,44.10
2023-05-01T21:19:27.531Z,44.10
2023-05-01T21:21:56.087Z,44.20
2023-05-01T21:24:26.951Z,44.20
2023-05-01T21:26:55.422Z,44.40
2023-05-01T21:29:24.039Z,44.40
2023-05-01T21:31:52.890Z,44.30
2023-05-01T21:34:21.819Z,44.30
2023-05-01T21:36:50.366Z,44.40
2023-05-01T21:39:21.822Z,44.50
2023-05-01T21:41:52.345Z,44.50
2023-05-01T21:44:20.847Z,44.70
2023-05-01T21:46:49.972Z,44.60
2023-05-01T21:49:23.100Z,44.60
2023-05-01T21:51:51.855Z,44.60
2023-05-01T21:54:21.687Z,44.70
2023-05-01T21:56:52.136Z,44.80
2023-05-01T21:59:21.069Z,44.80
2023-05-01T22:01:49.481Z,45.00
2023-05-01T22:04:19.457Z,44.90
2023-05-01T22:06:48.487Z,45.00
2023-05-01T22:09:17.100Z,45.10
2023-05-01T22:11:45.616Z,45.10
2023-05-01T22:14:16.285Z,45.10
2023-05-01T22:16:44.857Z,45.20
2023-05-01T22:19:13.610Z,45.30
2023-05-01T22:21:42.370Z,45.30
2023-05-01T22:24:11.142Z,45.30
2023-05-01T22:26:39.648Z,45.40
2023-05-01T22:29:08.631Z,45.40
2023-05-01T22:31:38.374Z,45.40
2023-05-01T22:34:06.778Z,45.40
2023-05-01T22:36:35.153Z,45.50
2023-05-01T22:39:03.952Z,45.40
2023-05-01T22:41:32.935Z,45.50
2023-05-01T22:44:01.563Z,45.50
2023-05-01T22:46:30.083Z,45.50
2023-05-01T22:49:03.333Z,45.60
2023-05-01T22:51:32.494Z,45.60
2023-05-01T22:54:01.063Z,45.60
2023-05-01T22:56:30.338Z,45.50
2023-05-01T22:58:59.277Z,45.60
2023-05-01T23:01:28.246Z,45.60
2023-05-01T23:03:57.523Z,45.70
2023-05-01T23:06:28.000Z,45.80
2023-05-01T23:08:56.704Z,45.80
2023-05-01T23:11:27.531Z,45.80
2023-05-01T23:13:56.161Z,45.80
2023-05-01T23:16:25.578Z,45.90
2023-05-01T23:18:54.380Z,45.90
2023-05-01T23:21:23.189Z,46.00
2023-05-01T23:23:54.372Z,46.00
2023-05-01T23:26:26.951Z,46.10
2023-05-01T23:28:55.808Z,46.20
2023-05-01T23:31:26.841Z,46.10
2023-05-01T23:33:56.142Z,46.20
2023-05-01T23:36:25.106Z,46.20
2023-05-01T23:38:55.329Z,46.20
2023-05-01T23:41:25.110Z,46.30
2023-05-01T23:43:53.877Z,46.20
2023-05-01T23:46:22.790Z,46.20
2023-05-01T23:48:51.500Z,46.20
2023-05-01T23:51:19.975Z,46.20
2023-05-01T23:53:48.502Z,46.20
2023-05-01T23:56:18.629Z,46.30
2023-05-01T23:58:47.372Z,46.30
